sensor_id;sensor_type;location;lat;lon;timestamp;P1;durP1;ratioP1;P2;durP2;ratioP2
47912;SDS011;33676;51.006;17.180;2022-07-21T00:02:07;8.60;;;7.00;;
47912;SDS011;33676;51.006;17.180;2022-07-21T00:04:36;10.60;;;7.40;;
47912;SDS011;33676;51.006;17.180;2022-07-21T00:07:05;8.00;;;7.00;;
47912;SDS011;33676;51.006;17.180;2022-07-21T00:09:34;7.70;;;7.00;;
47912;SDS011;33676;51.006;17.180;2022-07-21T00:12:04;7.30;;;6.70;;
47912;SDS011;33676;51.006;17.180;2022-07-21T00:14:33;7.70;;;7.00;;
47912;SDS011;33676;51.006;17.180;2022-07-21T00:17:03;9.30;;;8.20;;
47912;SDS011;33676;51.006;17.180;2022-07-21T00:19:32;8.10;;;7.30;;
47912;SDS011;33676;51.006;17.180;2022-07-21T00:22:00;8.30;;;7.40;;
47912;SDS011;33676;51.006;17.180;2022-07-21T00:24:29;10.20;;;7.70;;
47912;SDS011;33676;51.006;17.180;2022-07-21T00:26:58;8.10;;;7.30;;
47912;SDS011;33676;51.006;17.180;2022-07-21T00:29:27;7.70;;;7.00;;
47912;SDS011;33676;51.006;17.180;2022-07-21T00:31:55;7.40;;;6.80;;
47912;SDS011;33676;51.006;17.180;2022-07-21T00:34:24;9.50;;;7.20;;
47912;SDS011;33676;51.006;17.180;2022-07-21T00:36:53;10.90;;;7.50;;
47912;SDS011;33676;51.006;17.180;2022-07-21T00:39:22;8.20;;;7.30;;
47912;SDS011;33676;51.006;17.180;2022-07-21T00:41:51;8.10;;;7.20;;
47912;SDS011;33676;51.006;17.180;2022-07-21T00:44:25;32.90;;;9.90;;
47912;SDS011;33676;51.006;17.180;2022-07-21T00:46:56;33.40;;;9.60;;
47912;SDS011;33676;51.006;17.180;2022-07-21T00:49:25;13.60;;;7.30;;
47912;SDS011;33676;51.006;17.180;2022-07-21T00:51:54;8.50;;;7.70;;
47912;SDS011;33676;51.006;17.180;2022-07-21T00:54:23;8.40;;;7.70;;
47912;SDS011;33676;51.006;17.180;2022-07-21T00:56:51;8.60;;;7.60;;
47912;SDS011;33676;51.006;17.180;2022-07-21T00:59:20;8.00;;;7.30;;
47912;SDS011;33676;51.006;17.180;2022-07-21T01:01:49;10.40;;;6.90;;
47912;SDS011;33676;51.006;17.180;2022-07-21T01:04:18;8.90;;;7.90;;
47912;SDS011;33676;51.006;17.180;2022-07-21T01:06:49;8.30;;;7.50;;
47912;SDS011;33676;51.006;17.180;2022-07-21T01:09:18;10.50;;;7.70;;
47912;SDS011;33676;51.006;17.180;2022-07-21T01:11:48;11.10;;;7.30;;
47912;SDS011;33676;51.006;17.180;2022-07-21T01:14:17;9.70;;;7.30;;
47912;SDS011;33676;51.006;17.180;2022-07-21T01:16:46;7.30;;;6.70;;
47912;SDS011;33676;51.006;17.180;2022-07-21T01:19:15;9.60;;;7.00;;
47912;SDS011;33676;51.006;17.180;2022-07-21T01:21:46;8.90;;;7.00;;
47912;SDS011;33676;51.006;17.180;2022-07-21T01:24:16;9.60;;;6.50;;
47912;SDS011;33676;51.006;17.180;2022-07-21T01:26:47;9.90;;;8.60;;
47912;SDS011;33676;51.006;17.180;2022-07-21T01:29:18;8.70;;;7.90;;
47912;SDS011;33676;51.006;17.180;2022-07-21T01:31:48;8.40;;;7.50;;
47912;SDS011;33676;51.006;17.180;2022-07-21T01:34:18;8.30;;;7.20;;
47912;SDS011;33676;51.006;17.180;2022-07-21T01:36:46;9.20;;;8.40;;
47912;SDS011;33676;51.006;17.180;2022-07-21T01:39:15;9.70;;;7.80;;
47912;SDS011;33676;51.006;17.180;2022-07-21T01:42:03;13.20;;;8.50;;
47912;SDS011;33676;51.006;17.180;2022-07-21T01:44:33;8.70;;;7.90;;
47912;SDS011;33676;51.006;17.180;2022-07-21T01:47:02;8.70;;;7.90;;
47912;SDS011;33676;51.006;17.180;2022-07-21T01:49:31;8.30;;;7.40;;
47912;SDS011;33676;51.006;17.180;2022-07-21T01:51:59;8.70;;;7.90;;
47912;SDS011;33676;51.006;17.180;2022-07-21T01:54:29;8.70;;;7.60;;
47912;SDS011;33676;51.006;17.180;2022-07-21T01:56:57;8.50;;;7.70;;
47912;SDS011;33676;51.006;17.180;2022-07-21T01:59:26;8.50;;;7.60;;
47912;SDS011;33676;51.006;17.180;2022-07-21T02:01:55;8.80;;;8.10;;
47912;SDS011;33676;51.006;17.180;2022-07-21T02:04:24;9.60;;;7.10;;
47912;SDS011;33676;51.006;17.180;2022-07-21T02:06:53;9.40;;;8.50;;
47912;SDS011;33676;51.006;17.180;2022-07-21T02:09:21;8.60;;;7.60;;
47912;SDS011;33676;51.006;17.180;2022-07-21T02:11:52;10.50;;;8.90;;
47912;SDS011;33676;51.006;17.180;2022-07-21T02:14:21;9.60;;;8.60;;
47912;SDS011;33676;51.006;17.180;2022-07-21T02:16:50;9.50;;;8.20;;
47912;SDS011;33676;51.006;17.180;2022-07-21T02:19:19;10.90;;;9.40;;
47912;SDS011;33676;51.006;17.180;2022-07-21T02:21:48;8.80;;;7.90;;
47912;SDS011;33676;51.006;17.180;2022-07-21T02:24:16;9.90;;;8.90;;
47912;SDS011;33676;51.006;17.180;2022-07-21T02:26:45;9.10;;;8.10;;
47912;SDS011;33676;51.006;17.180;2022-07-21T02:29:14;9.80;;;8.00;;
47912;SDS011;33676;51.006;17.180;2022-07-21T02:31:43;9.20;;;8.40;;
47912;SDS011;33676;51.006;17.180;2022-07-21T02:34:12;9.10;;;8.10;;
47912;SDS011;33676;51.006;17.180;2022-07-21T02:36:41;8.80;;;8.00;;
47912;SDS011;33676;51.006;17.180;2022-07-21T02:39:09;9.00;;;7.90;;
47912;SDS011;33676;51.006;17.180;2022-07-21T02:41:38;9.60;;;8.40;;
47912;SDS011;33676;51.006;17.180;2022-07-21T02:44:07;10.80;;;9.80;;
47912;SDS011;33676;51.006;17.180;2022-07-21T02:46:35;10.70;;;9.00;;
47912;SDS011;33676;51.006;17.180;2022-07-21T02:49:04;9.70;;;8.80;;
47912;SDS011;33676;51.006;17.180;2022-07-21T02:51:33;10.70;;;9.70;;
47912;SDS011;33676;51.006;17.180;2022-07-21T02:54:02;9.40;;;8.30;;
47912;SDS011;33676;51.006;17.180;2022-07-21T02:56:31;11.30;;;8.60;;
47912;SDS011;33676;51.006;17.180;2022-07-21T02:58:59;10.60;;;9.10;;
47912;SDS011;33676;51.006;17.180;2022-07-21T03:01:28;10.90;;;9.00;;
47912;SDS011;33676;51.006;17.180;2022-07-21T03:03:57;10.10;;;9.10;;
47912;SDS011;33676;51.006;17.180;2022-07-21T03:06:26;9.30;;;8.30;;
47912;SDS011;33676;51.006;17.180;2022-07-21T03:08:55;10.10;;;9.10;;
47912;SDS011;33676;51.006;17.180;2022-07-21T03:11:24;14.60;;;9.80;;
47912;SDS011;33676;51.006;17.180;2022-07-21T03:13:53;11.70;;;9.60;;
47912;SDS011;33676;51.006;17.180;2022-07-21T03:16:22;11.20;;;8.80;;
47912;SDS011;33676;51.006;17.180;2022-07-21T03:18:51;10.10;;;9.20;;
47912;SDS011;33676;51.006;17.180;2022-07-21T03:21:20;10.00;;;9.10;;
47912;SDS011;33676;51.006;17.180;2022-07-21T03:23:49;8.90;;;8.10;;
47912;SDS011;33676;51.006;17.180;2022-07-21T03:26:18;9.90;;;8.90;;
47912;SDS011;33676;51.006;17.180;2022-07-21T03:28:47;12.00;;;10.20;;
47912;SDS011;33676;51.006;17.180;2022-07-21T03:31:16;11.00;;;9.90;;
47912;SDS011;33676;51.006;17.180;2022-07-21T03:33:44;10.50;;;9.50;;
47912;SDS011;33676;51.006;17.180;2022-07-21T03:36:13;10.50;;;9.40;;
47912;SDS011;33676;51.006;17.180;2022-07-21T03:38:42;9.40;;;8.60;;
47912;SDS011;33676;51.006;17.180;2022-07-21T03:41:11;10.30;;;9.40;;
47912;SDS011;33676;51.006;17.180;2022-07-21T03:43:40;10.90;;;10.00;;
47912;SDS011;33676;51.006;17.180;2022-07-21T03:46:09;10.20;;;9.30;;
47912;SDS011;33676;51.006;17.180;2022-07-21T03:48:39;11.40;;;9.00;;
47912;SDS011;33676;51.006;17.180;2022-07-21T03:51:08;10.70;;;9.60;;
47912;SDS011;33676;51.006;17.180;2022-07-21T03:53:37;13.60;;;11.10;;
47912;SDS011;33676;51.006;17.180;2022-07-21T03:56:06;10.70;;;9.70;;
47912;SDS011;33676;51.006;17.180;2022-07-21T03:58:35;11.50;;;10.20;;
47912;SDS011;33676;51.006;17.180;2022-07-21T04:01:04;14.60;;;10.70;;
47912;SDS011;33676;51.006;17.180;2022-07-21T04:03:33;17.60;;;10.90;;
47912;SDS011;33676;51.006;17.180;2022-07-21T04:06:03;10.50;;;9.30;;
47912;SDS011;33676;51.006;17.180;2022-07-21T04:08:32;10.10;;;9.10;;
47912;SDS011;33676;51.006;17.180;2022-07-21T04:11:01;11.80;;;10.00;;
47912;SDS011;33676;51.006;17.180;2022-07-21T04:13:30;10.50;;;9.50;;
47912;SDS011;33676;51.006;17.180;2022-07-21T04:15:59;12.60;;;9.80;;
47912;SDS011;33676;51.006;17.180;2022-07-21T04:18:28;11.80;;;9.60;;
47912;SDS011;33676;51.006;17.180;2022-07-21T04:20:57;10.10;;;9.20;;
47912;SDS011;33676;51.006;17.180;2022-07-21T04:23:26;10.90;;;10.00;;
47912;SDS011;33676;51.006;17.180;2022-07-21T04:25:55;11.60;;;10.60;;
47912;SDS011;33676;51.006;17.180;2022-07-21T04:28:24;10.90;;;9.80;;
47912;SDS011;33676;51.006;17.180;2022-07-21T04:30:52;10.40;;;8.50;;
47912;SDS011;33676;51.006;17.180;2022-07-21T04:33:21;10.70;;;9.80;;
47912;SDS011;33676;51.006;17.180;2022-07-21T04:35:50;13.70;;;11.20;;
47912;SDS011;33676;51.006;17.180;2022-07-21T04:38:19;10.60;;;9.50;;
47912;SDS011;33676;51.006;17.180;2022-07-21T04:40:48;11.20;;;10.20;;
47912;SDS011;33676;51.006;17.180;2022-07-21T04:43:16;12.70;;;9.70;;
47912;SDS011;33676;51.006;17.180;2022-07-21T04:45:45;11.40;;;9.90;;
47912;SDS011;33676;51.006;17.180;2022-07-21T04:48:14;10.90;;;9.60;;
47912;SDS011;33676;51.006;17.180;2022-07-21T04:50:43;11.30;;;10.30;;
47912;SDS011;33676;51.006;17.180;2022-07-21T04:53:12;12.20;;;10.40;;
47912;SDS011;33676;51.006;17.180;2022-07-21T04:55:40;12.30;;;11.10;;
47912;SDS011;33676;51.006;17.180;2022-07-21T04:58:09;11.80;;;10.60;;
47912;SDS011;33676;51.006;17.180;2022-07-21T05:00:38;14.00;;;11.00;;
47912;SDS011;33676;51.006;17.180;2022-07-21T05:03:07;13.20;;;10.30;;
47912;SDS011;33676;51.006;17.180;2022-07-21T05:05:36;11.90;;;10.50;;
47912;SDS011;33676;51.006;17.180;2022-07-21T05:08:04;12.50;;;10.20;;
47912;SDS011;33676;51.006;17.180;2022-07-21T05:10:33;12.30;;;10.80;;
47912;SDS011;33676;51.006;17.180;2022-07-21T05:13:02;17.00;;;10.40;;
47912;SDS011;33676;51.006;17.180;2022-07-21T05:15:31;14.00;;;10.80;;
47912;SDS011;33676;51.006;17.180;2022-07-21T05:18:00;10.80;;;9.70;;
47912;SDS011;33676;51.006;17.180;2022-07-21T05:20:29;12.30;;;10.80;;
47912;SDS011;33676;51.006;17.180;2022-07-21T05:22:57;10.50;;;9.40;;
47912;SDS011;33676;51.006;17.180;2022-07-21T05:25:26;11.60;;;9.90;;
47912;SDS011;33676;51.006;17.180;2022-07-21T05:27:55;13.90;;;9.50;;
47912;SDS011;33676;51.006;17.180;2022-07-21T05:30:24;10.10;;;9.10;;
47912;SDS011;33676;51.006;17.180;2022-07-21T05:32:52;13.90;;;10.70;;
47912;SDS011;33676;51.006;17.180;2022-07-21T05:35:21;14.50;;;9.40;;
47912;SDS011;33676;51.006;17.180;2022-07-21T05:37:50;11.40;;;10.20;;
47912;SDS011;33676;51.006;17.180;2022-07-21T05:40:19;16.60;;;10.80;;
47912;SDS011;33676;51.006;17.180;2022-07-21T05:42:48;10.60;;;9.60;;
47912;SDS011;33676;51.006;17.180;2022-07-21T05:45:17;11.50;;;10.10;;
47912;SDS011;33676;51.006;17.180;2022-07-21T05:47:46;10.80;;;9.70;;
47912;SDS011;33676;51.006;17.180;2022-07-21T05:50:15;12.70;;;10.40;;
47912;SDS011;33676;51.006;17.180;2022-07-21T05:52:44;11.50;;;10.10;;
47912;SDS011;33676;51.006;17.180;2022-07-21T05:55:12;11.40;;;9.90;;
47912;SDS011;33676;51.006;17.180;2022-07-21T05:57:41;12.50;;;10.90;;
47912;SDS011;33676;51.006;17.180;2022-07-21T06:00:15;11.40;;;9.70;;
47912;SDS011;33676;51.006;17.180;2022-07-21T06:02:45;11.20;;;10.00;;
47912;SDS011;33676;51.006;17.180;2022-07-21T06:05:14;10.50;;;9.40;;
47912;SDS011;33676;51.006;17.180;2022-07-21T06:07:43;11.20;;;9.40;;
47912;SDS011;33676;51.006;17.180;2022-07-21T06:10:12;10.70;;;9.40;;
47912;SDS011;33676;51.006;17.180;2022-07-21T06:12:44;10.70;;;9.40;;
47912;SDS011;33676;51.006;17.180;2022-07-21T06:15:13;10.10;;;9.10;;
47912;SDS011;33676;51.006;17.180;2022-07-21T06:17:43;10.50;;;9.40;;
47912;SDS011;33676;51.006;17.180;2022-07-21T06:20:13;13.00;;;9.70;;
47912;SDS011;33676;51.006;17.180;2022-07-21T06:22:43;9.60;;;8.10;;
47912;SDS011;33676;51.006;17.180;2022-07-21T06:25:12;9.50;;;8.00;;
47912;SDS011;33676;51.006;17.180;2022-07-21T06:27:40;9.90;;;8.90;;
47912;SDS011;33676;51.006;17.180;2022-07-21T06:30:35;11.80;;;7.80;;
47912;SDS011;33676;51.006;17.180;2022-07-21T06:33:04;10.80;;;8.40;;
47912;SDS011;33676;51.006;17.180;2022-07-21T06:35:33;11.10;;;8.80;;
47912;SDS011;33676;51.006;17.180;2022-07-21T06:38:03;8.40;;;7.40;;
47912;SDS011;33676;51.006;17.180;2022-07-21T06:40:40;10.30;;;9.10;;
47912;SDS011;33676;51.006;17.180;2022-07-21T06:43:11;7.90;;;6.80;;
47912;SDS011;33676;51.006;17.180;2022-07-21T06:45:57;7.80;;;7.20;;
47912;SDS011;33676;51.006;17.180;2022-07-21T06:48:26;11.20;;;7.90;;
47912;SDS011;33676;51.006;17.180;2022-07-21T06:50:55;10.40;;;7.80;;
47912;SDS011;33676;51.006;17.180;2022-07-21T06:53:26;11.10;;;8.90;;
47912;SDS011;33676;51.006;17.180;2022-07-21T06:55:55;8.70;;;7.80;;
47912;SDS011;33676;51.006;17.180;2022-07-21T06:58:30;9.80;;;8.30;;
47912;SDS011;33676;51.006;17.180;2022-07-21T07:01:06;8.50;;;7.70;;
47912;SDS011;33676;51.006;17.180;2022-07-21T07:03:37;7.10;;;6.50;;
47912;SDS011;33676;51.006;17.180;2022-07-21T07:06:07;9.40;;;8.00;;
47912;SDS011;33676;51.006;17.180;2022-07-21T07:08:36;8.30;;;7.20;;
47912;SDS011;33676;51.006;17.180;2022-07-21T07:11:12;9.00;;;6.80;;
47912;SDS011;33676;51.006;17.180;2022-07-21T07:13:40;8.60;;;6.90;;
47912;SDS011;33676;51.006;17.180;2022-07-21T07:16:29;13.60;;;12.20;;
47912;SDS011;33676;51.006;17.180;2022-07-21T07:18:58;8.40;;;7.20;;
47912;SDS011;33676;51.006;17.180;2022-07-21T07:21:26;8.10;;;7.30;;
47912;SDS011;33676;51.006;17.180;2022-07-21T07:23:55;9.80;;;8.90;;
47912;SDS011;33676;51.006;17.180;2022-07-21T07:26:24;24.20;;;10.30;;
47912;SDS011;33676;51.006;17.180;2022-07-21T07:28:53;20.90;;;12.60;;
47912;SDS011;33676;51.006;17.180;2022-07-21T07:31:23;9.60;;;7.60;;
47912;SDS011;33676;51.006;17.180;2022-07-21T07:33:51;12.60;;;7.40;;
47912;SDS011;33676;51.006;17.180;2022-07-21T07:36:21;8.00;;;7.20;;
47912;SDS011;33676;51.006;17.180;2022-07-21T07:38:50;8.10;;;7.00;;
47912;SDS011;33676;51.006;17.180;2022-07-21T07:41:21;11.90;;;6.00;;
47912;SDS011;33676;51.006;17.180;2022-07-21T07:43:51;7.60;;;6.90;;
47912;SDS011;33676;51.006;17.180;2022-07-21T07:46:21;7.90;;;6.30;;
47912;SDS011;33676;51.006;17.180;2022-07-21T07:48:50;7.60;;;7.00;;
47912;SDS011;33676;51.006;17.180;2022-07-21T07:51:19;8.20;;;7.50;;
47912;SDS011;33676;51.006;17.180;2022-07-21T07:53:48;14.80;;;10.30;;
47912;SDS011;33676;51.006;17.180;2022-07-21T07:56:17;11.30;;;7.50;;
47912;SDS011;33676;51.006;17.180;2022-07-21T07:58:46;6.50;;;6.00;;
47912;SDS011;33676;51.006;17.180;2022-07-21T08:01:14;6.50;;;5.30;;
47912;SDS011;33676;51.006;17.180;2022-07-21T08:03:45;9.30;;;6.20;;
47912;SDS011;33676;51.006;17.180;2022-07-21T08:06:14;10.80;;;9.50;;
47912;SDS011;33676;51.006;17.180;2022-07-21T08:08:42;12.80;;;7.60;;
47912;SDS011;33676;51.006;17.180;2022-07-21T08:11:11;6.50;;;5.90;;
47912;SDS011;33676;51.006;17.180;2022-07-21T08:13:41;8.70;;;6.30;;
47912;SDS011;33676;51.006;17.180;2022-07-21T08:16:10;5.90;;;5.40;;
47912;SDS011;33676;51.006;17.180;2022-07-21T08:18:43;6.70;;;5.70;;
47912;SDS011;33676;51.006;17.180;2022-07-21T08:21:16;7.40;;;5.60;;
47912;SDS011;33676;51.006;17.180;2022-07-21T08:23:45;6.20;;;5.60;;
47912;SDS011;33676;51.006;17.180;2022-07-21T08:26:13;7.00;;;5.70;;
47912;SDS011;33676;51.006;17.180;2022-07-21T08:28:42;8.10;;;5.10;;
47912;SDS011;33676;51.006;17.180;2022-07-21T08:31:11;6.20;;;5.10;;
47912;SDS011;33676;51.006;17.180;2022-07-21T08:33:39;5.60;;;5.20;;
47912;SDS011;33676;51.006;17.180;2022-07-21T08:36:08;6.90;;;5.30;;
47912;SDS011;33676;51.006;17.180;2022-07-21T08:38:37;6.30;;;5.50;;
47912;SDS011;33676;51.006;17.180;2022-07-21T08:41:06;8.50;;;6.90;;
47912;SDS011;33676;51.006;17.180;2022-07-21T08:43:37;5.90;;;5.40;;
47912;SDS011;33676;51.006;17.180;2022-07-21T08:46:06;5.80;;;4.80;;
47912;SDS011;33676;51.006;17.180;2022-07-21T08:48:36;5.00;;;4.60;;
47912;SDS011;33676;51.006;17.180;2022-07-21T08:51:05;6.00;;;5.50;;
47912;SDS011;33676;51.006;17.180;2022-07-21T08:53:34;4.50;;;3.90;;
47912;SDS011;33676;51.006;17.180;2022-07-21T08:56:03;5.60;;;4.20;;
47912;SDS011;33676;51.006;17.180;2022-07-21T08:58:32;11.60;;;5.10;;
47912;SDS011;33676;51.006;17.180;2022-07-21T09:01:03;10.80;;;5.20;;
47912;SDS011;33676;51.006;17.180;2022-07-21T09:03:32;14.50;;;7.20;;
47912;SDS011;33676;51.006;17.180;2022-07-21T09:11:18;13.90;;;7.90;;
47912;SDS011;33676;51.006;17.180;2022-07-21T09:14:13;7.70;;;5.70;;
47912;SDS011;33676;51.006;17.180;2022-07-21T09:16:52;4.20;;;3.80;;
47912;SDS011;33676;51.006;17.180;2022-07-21T09:19:27;7.90;;;5.90;;
47912;SDS011;33676;51.006;17.180;2022-07-21T09:22:02;10.70;;;5.20;;
47912;SDS011;33676;51.006;17.180;2022-07-21T09:24:34;7.00;;;6.30;;
47912;SDS011;33676;51.006;17.180;2022-07-21T09:27:18;16.20;;;7.00;;
47912;SDS011;33676;51.006;17.180;2022-07-21T09:29:52;21.10;;;9.70;;
47912;SDS011;33676;51.006;17.180;2022-07-21T09:35:02;7.90;;;6.10;;
47912;SDS011;33676;51.006;17.180;2022-07-21T09:37:37;11.10;;;6.50;;
47912;SDS011;33676;51.006;17.180;2022-07-21T09:40:09;7.10;;;4.90;;
47912;SDS011;33676;51.006;17.180;2022-07-21T09:42:47;3.80;;;3.40;;
47912;SDS011;33676;51.006;17.180;2022-07-21T09:45:18;5.20;;;3.30;;
47912;SDS011;33676;51.006;17.180;2022-07-21T09:47:47;9.30;;;6.10;;
47912;SDS011;33676;51.006;17.180;2022-07-21T09:50:16;4.80;;;4.40;;
47912;SDS011;33676;51.006;17.180;2022-07-21T09:52:56;5.10;;;3.60;;
47912;SDS011;33676;51.006;17.180;2022-07-21T09:55:31;4.60;;;3.90;;
47912;SDS011;33676;51.006;17.180;2022-07-21T09:58:00;4.60;;;4.10;;
47912;SDS011;33676;51.006;17.180;2022-07-21T10:00:29;3.70;;;3.40;;
47912;SDS011;33676;51.006;17.180;2022-07-21T10:02:59;4.10;;;3.80;;
47912;SDS011;33676;51.006;17.180;2022-07-21T10:05:31;3.70;;;3.10;;
47912;SDS011;33676;51.006;17.180;2022-07-21T10:08:03;5.30;;;3.50;;
47912;SDS011;33676;51.006;17.180;2022-07-21T10:10:34;10.50;;;4.40;;
47912;SDS011;33676;51.006;17.180;2022-07-21T10:13:23;3.80;;;3.50;;
47912;SDS011;33676;51.006;17.180;2022-07-21T10:15:53;3.70;;;3.40;;
47912;SDS011;33676;51.006;17.180;2022-07-21T10:18:32;7.70;;;4.60;;
47912;SDS011;33676;51.006;17.180;2022-07-21T10:24:08;5.90;;;3.40;;
47912;SDS011;33676;51.006;17.180;2022-07-21T10:26:39;4.30;;;3.80;;
47912;SDS011;33676;51.006;17.180;2022-07-21T10:30:02;20.60;;;5.00;;
47912;SDS011;33676;51.006;17.180;2022-07-21T10:32:35;3.70;;;3.20;;
47912;SDS011;33676;51.006;17.180;2022-07-21T10:35:26;3.30;;;3.10;;
47912;SDS011;33676;51.006;17.180;2022-07-21T10:38:03;4.70;;;3.30;;
47912;SDS011;33676;51.006;17.180;2022-07-21T10:45:34;4.10;;;3.90;;
47912;SDS011;33676;51.006;17.180;2022-07-21T10:48:07;3.60;;;3.30;;
47912;SDS011;33676;51.006;17.180;2022-07-21T10:50:39;3.30;;;2.70;;
47912;SDS011;33676;51.006;17.180;2022-07-21T10:53:14;3.50;;;3.20;;
47912;SDS011;33676;51.006;17.180;2022-07-21T10:55:53;2.50;;;2.40;;
47912;SDS011;33676;51.006;17.180;2022-07-21T11:01:03;4.30;;;2.90;;
47912;SDS011;33676;51.006;17.180;2022-07-21T11:04:14;3.30;;;3.00;;
47912;SDS011;33676;51.006;17.180;2022-07-21T11:06:48;6.50;;;2.70;;
47912;SDS011;33676;51.006;17.180;2022-07-21T11:09:17;3.00;;;2.70;;
47912;SDS011;33676;51.006;17.180;2022-07-21T11:11:58;3.20;;;2.90;;
47912;SDS011;33676;51.006;17.180;2022-07-21T11:14:54;4.00;;;3.60;;
47912;SDS011;33676;51.006;17.180;2022-07-21T11:17:30;3.00;;;2.70;;
47912;SDS011;33676;51.006;17.180;2022-07-21T11:20:00;3.80;;;3.00;;
47912;SDS011;33676;51.006;17.180;2022-07-21T11:22:30;4.10;;;2.50;;
47912;SDS011;33676;51.006;17.180;2022-07-21T11:25:05;2.40;;;2.30;;
47912;SDS011;33676;51.006;17.180;2022-07-21T11:27:37;3.30;;;3.10;;
47912;SDS011;33676;51.006;17.180;2022-07-21T11:30:09;3.20;;;3.00;;
47912;SDS011;33676;51.006;17.180;2022-07-21T11:32:38;2.90;;;2.70;;
47912;SDS011;33676;51.006;17.180;2022-07-21T11:35:07;3.40;;;3.10;;
47912;SDS011;33676;51.006;17.180;2022-07-21T11:37:44;3.90;;;2.70;;
47912;SDS011;33676;51.006;17.180;2022-07-21T11:40:19;4.00;;;3.00;;
47912;SDS011;33676;51.006;17.180;2022-07-21T11:42:51;3.10;;;2.90;;
47912;SDS011;33676;51.006;17.180;2022-07-21T11:45:23;2.80;;;2.60;;
47912;SDS011;33676;51.006;17.180;2022-07-21T11:47:56;2.90;;;2.70;;
47912;SDS011;33676;51.006;17.180;2022-07-21T11:50:25;4.50;;;2.90;;
47912;SDS011;33676;51.006;17.180;2022-07-21T11:52:55;2.70;;;2.50;;
47912;SDS011;33676;51.006;17.180;2022-07-21T11:55:30;4.30;;;2.90;;
47912;SDS011;33676;51.006;17.180;2022-07-21T11:57:58;3.40;;;2.70;;
47912;SDS011;33676;51.006;17.180;2022-07-21T12:00:27;4.20;;;3.70;;
47912;SDS011;33676;51.006;17.180;2022-07-21T12:03:06;6.80;;;3.10;;
47912;SDS011;33676;51.006;17.180;2022-07-21T12:05:36;13.00;;;3.80;;
47912;SDS011;33676;51.006;17.180;2022-07-21T12:08:08;2.70;;;2.50;;
47912;SDS011;33676;51.006;17.180;2022-07-21T12:10:37;2.20;;;2.10;;
47912;SDS011;33676;51.006;17.180;2022-07-21T12:13:06;2.70;;;2.50;;
47912;SDS011;33676;51.006;17.180;2022-07-21T12:15:38;2.60;;;2.40;;
47912;SDS011;33676;51.006;17.180;2022-07-21T12:18:21;2.70;;;2.60;;
47912;SDS011;33676;51.006;17.180;2022-07-21T12:21:04;2.50;;;2.30;;
47912;SDS011;33676;51.006;17.180;2022-07-21T12:23:37;2.70;;;2.50;;
47912;SDS011;33676;51.006;17.180;2022-07-21T12:26:19;3.50;;;2.70;;
47912;SDS011;33676;51.006;17.180;2022-07-21T12:28:51;3.50;;;3.20;;
47912;SDS011;33676;51.006;17.180;2022-07-21T12:31:28;8.90;;;3.00;;
47912;SDS011;33676;51.006;17.180;2022-07-21T12:34:13;4.40;;;3.40;;
47912;SDS011;33676;51.006;17.180;2022-07-21T12:36:59;3.10;;;2.80;;
47912;SDS011;33676;51.006;17.180;2022-07-21T12:40:03;4.60;;;2.50;;
47912;SDS011;33676;51.006;17.180;2022-07-21T12:42:37;3.80;;;3.00;;
47912;SDS011;33676;51.006;17.180;2022-07-21T12:45:19;2.70;;;2.60;;
47912;SDS011;33676;51.006;17.180;2022-07-21T12:48:33;2.90;;;2.60;;
47912;SDS011;33676;51.006;17.180;2022-07-21T12:51:25;3.00;;;2.60;;
47912;SDS011;33676;51.006;17.180;2022-07-21T12:53:58;3.30;;;3.10;;
47912;SDS011;33676;51.006;17.180;2022-07-21T12:56:31;2.40;;;2.20;;
47912;SDS011;33676;51.006;17.180;2022-07-21T12:59:03;2.40;;;2.20;;
47912;SDS011;33676;51.006;17.180;2022-07-21T13:01:33;3.20;;;2.60;;
47912;SDS011;33676;51.006;17.180;2022-07-21T13:04:06;4.50;;;2.90;;
47912;SDS011;33676;51.006;17.180;2022-07-21T13:06:36;3.50;;;3.10;;
47912;SDS011;33676;51.006;17.180;2022-07-21T13:09:07;4.00;;;2.60;;
47912;SDS011;33676;51.006;17.180;2022-07-21T13:11:46;3.70;;;3.30;;
47912;SDS011;33676;51.006;17.180;2022-07-21T13:14:16;4.00;;;3.20;;
47912;SDS011;33676;51.006;17.180;2022-07-21T13:16:49;3.50;;;3.20;;
47912;SDS011;33676;51.006;17.180;2022-07-21T13:19:19;3.90;;;3.30;;
47912;SDS011;33676;51.006;17.180;2022-07-21T13:21:48;4.20;;;3.30;;
47912;SDS011;33676;51.006;17.180;2022-07-21T13:24:19;4.00;;;3.40;;
47912;SDS011;33676;51.006;17.180;2022-07-21T13:26:49;4.10;;;3.70;;
47912;SDS011;33676;51.006;17.180;2022-07-21T13:29:19;6.90;;;3.90;;
47912;SDS011;33676;51.006;17.180;2022-07-21T13:31:50;4.00;;;3.70;;
47912;SDS011;33676;51.006;17.180;2022-07-21T13:34:22;7.60;;;3.80;;
47912;SDS011;33676;51.006;17.180;2022-07-21T13:36:52;4.60;;;2.90;;
47912;SDS011;33676;51.006;17.180;2022-07-21T13:39:20;4.40;;;3.80;;
47912;SDS011;33676;51.006;17.180;2022-07-21T13:42:11;3.50;;;3.10;;
47912;SDS011;33676;51.006;17.180;2022-07-21T13:45:00;4.80;;;3.40;;
47912;SDS011;33676;51.006;17.180;2022-07-21T13:47:29;3.30;;;3.10;;
47912;SDS011;33676;51.006;17.180;2022-07-21T13:50:01;5.00;;;3.00;;
47912;SDS011;33676;51.006;17.180;2022-07-21T13:52:32;4.30;;;3.60;;
47912;SDS011;33676;51.006;17.180;2022-07-21T13:55:03;4.40;;;3.80;;
47912;SDS011;33676;51.006;17.180;2022-07-21T13:57:34;6.90;;;3.10;;
47912;SDS011;33676;51.006;17.180;2022-07-21T14:00:07;3.90;;;3.40;;
47912;SDS011;33676;51.006;17.180;2022-07-21T14:02:40;5.40;;;3.90;;
47912;SDS011;33676;51.006;17.180;2022-07-21T14:05:09;4.90;;;3.10;;
47912;SDS011;33676;51.006;17.180;2022-07-21T14:07:40;4.00;;;2.70;;
47912;SDS011;33676;51.006;17.180;2022-07-21T14:10:10;6.50;;;3.30;;
47912;SDS011;33676;51.006;17.180;2022-07-21T14:12:39;3.40;;;3.10;;
47912;SDS011;33676;51.006;17.180;2022-07-21T14:15:10;5.20;;;3.60;;
47912;SDS011;33676;51.006;17.180;2022-07-21T14:17:43;4.00;;;2.80;;
47912;SDS011;33676;51.006;17.180;2022-07-21T14:20:12;3.20;;;2.80;;
47912;SDS011;33676;51.006;17.180;2022-07-21T14:22:42;3.70;;;3.30;;
47912;SDS011;33676;51.006;17.180;2022-07-21T14:25:11;3.80;;;3.10;;
47912;SDS011;33676;51.006;17.180;2022-07-21T14:27:50;3.60;;;3.30;;
47912;SDS011;33676;51.006;17.180;2022-07-21T14:30:25;3.10;;;2.70;;
47912;SDS011;33676;51.006;17.180;2022-07-21T14:32:57;5.20;;;3.80;;
47912;SDS011;33676;51.006;17.180;2022-07-21T14:35:27;3.70;;;3.30;;
47912;SDS011;33676;51.006;17.180;2022-07-21T14:37:56;4.40;;;3.80;;
47912;SDS011;33676;51.006;17.180;2022-07-21T14:40:26;3.70;;;3.30;;
47912;SDS011;33676;51.006;17.180;2022-07-21T14:42:55;4.90;;;2.70;;
47912;SDS011;33676;51.006;17.180;2022-07-21T14:45:25;7.30;;;3.90;;
47912;SDS011;33676;51.006;17.180;2022-07-21T14:47:56;3.60;;;3.40;;
47912;SDS011;33676;51.006;17.180;2022-07-21T14:50:27;4.90;;;3.80;;
47912;SDS011;33676;51.006;17.180;2022-07-21T14:52:57;5.30;;;3.90;;
47912;SDS011;33676;51.006;17.180;2022-07-21T14:55:27;4.70;;;3.60;;
47912;SDS011;33676;51.006;17.180;2022-07-21T14:57:58;3.50;;;3.30;;
47912;SDS011;33676;51.006;17.180;2022-07-21T15:00:29;4.60;;;4.10;;
47912;SDS011;33676;51.006;17.180;2022-07-21T15:02:57;5.30;;;4.30;;
47912;SDS011;33676;51.006;17.180;2022-07-21T15:05:27;5.60;;;4.80;;
47912;SDS011;33676;51.006;17.180;2022-07-21T15:07:56;4.90;;;4.50;;
47912;SDS011;33676;51.006;17.180;2022-07-21T15:10:25;4.40;;;4.00;;
47912;SDS011;33676;51.006;17.180;2022-07-21T15:12:55;4.00;;;3.70;;